sensor_id;sensor_type;location;lat;lon;timestamp;temperature;humidity
10247;DHT22;5168;47.854;7.944;2022-07-24T00:08:13;16.50;99.90
10247;DHT22;5168;47.854;7.944;2022-07-24T00:10:39;17.30;99.90
10247;DHT22;5168;47.854;7.944;2022-07-24T00:15:30;16.30;99.90
10247;DHT22;5168;47.854;7.944;2022-07-24T00:17:56;16.70;99.90
10247;DHT22;5168;47.854;7.944;2022-07-24T00:20:22;16.70;99.90
10247;DHT22;5168;47.854;7.944;2022-07-24T00:22:48;16.60;99.90
10247;DHT22;5168;47.854;7.944;2022-07-24T00:25:14;16.90;99.90
10247;DHT22;5168;47.854;7.944;2022-07-24T00:27:39;16.20;99.90
10247;DHT22;5168;47.854;7.944;2022-07-24T00:34:57;16.70;99.90
10247;DHT22;5168;47.854;7.944;2022-07-24T00:37:22;16.80;99.90
10247;DHT22;5168;47.854;7.944;2022-07-24T00:39:48;16.60;99.90
10247;DHT22;5168;47.854;7.944;2022-07-24T00:44:39;16.10;99.90
10247;DHT22;5168;47.854;7.944;2022-07-24T00:47:05;16.80;99.90
10247;DHT22;5168;47.854;7.944;2022-07-24T00:49:30;16.60;99.90
10247;DHT22;5168;47.854;7.944;2022-07-24T00:51:56;16.90;99.90
10247;DHT22;5168;47.854;7.944;2022-07-24T00:54:23;16.30;99.90
10247;DHT22;5168;47.854;7.944;2022-07-24T00:56:51;16.60;99.90
10247;DHT22;5168;47.854;7.944;2022-07-24T00:59:17;16.30;99.90
10247;DHT22;5168;47.854;7.944;2022-07-24T01:01:44;16.70;99.90
10247;DHT22;5168;47.854;7.944;2022-07-24T01:04:10;16.30;99.90
10247;DHT22;5168;47.854;7.944;2022-07-24T01:06:35;16.00;99.90
10247;DHT22;5168;47.854;7.944;2022-07-24T01:11:28;16.30;99.90
10247;DHT22;5168;47.854;7.944;2022-07-24T01:18:46;17.00;99.90
10247;DHT22;5168;47.854;7.944;2022-07-24T01:21:11;16.50;99.90
10247;DHT22;5168;47.854;7.944;2022-07-24T01:23:37;16.60;99.90
10247;DHT22;5168;47.854;7.944;2022-07-24T01:26:06;16.50;99.90
10247;DHT22;5168;47.854;7.944;2022-07-24T01:30:58;16.40;99.90
10247;DHT22;5168;47.854;7.944;2022-07-24T01:33:24;16.50;99.90
10247;DHT22;5168;47.854;7.944;2022-07-24T01:38:17;17.00;99.90
10247;DHT22;5168;47.854;7.944;2022-07-24T01:40:43;16.40;99.90
10247;DHT22;5168;47.854;7.944;2022-07-24T01:43:09;16.70;99.90
10247;DHT22;5168;47.854;7.944;2022-07-24T01:45:34;16.10;99.90
10247;DHT22;5168;47.854;7.944;2022-07-24T01:48:00;16.30;99.90
10247;DHT22;5168;47.854;7.944;2022-07-24T01:52:52;17.10;99.90
10247;DHT22;5168;47.854;7.944;2022-07-24T01:55:21;16.60;99.90
10247;DHT22;5168;47.854;7.944;2022-07-24T01:57:47;17.00;99.90
10247;DHT22;5168;47.854;7.944;2022-07-24T02:00:14;16.60;99.90
10247;DHT22;5168;47.854;7.944;2022-07-24T02:02:41;16.20;99.90
10247;DHT22;5168;47.854;7.944;2022-07-24T02:05:08;16.90;99.90
10247;DHT22;5168;47.854;7.944;2022-07-24T02:07:34;16.70;99.90
10247;DHT22;5168;47.854;7.944;2022-07-24T02:12:25;16.60;99.90
10247;DHT22;5168;47.854;7.944;2022-07-24T02:14:51;16.80;99.90
10247;DHT22;5168;47.854;7.944;2022-07-24T02:17:17;16.20;99.90
10247;DHT22;5168;47.854;7.944;2022-07-24T02:19:42;16.10;99.90
10247;DHT22;5168;47.854;7.944;2022-07-24T02:24:34;16.30;99.90
10247;DHT22;5168;47.854;7.944;2022-07-24T02:26:59;16.20;99.90
10247;DHT22;5168;47.854;7.944;2022-07-24T02:29:25;16.80;99.90
10247;DHT22;5168;47.854;7.944;2022-07-24T02:31:51;16.50;99.90
10247;DHT22;5168;47.854;7.944;2022-07-24T02:34:16;16.40;99.90
10247;DHT22;5168;47.854;7.944;2022-07-24T02:36:42;16.20;99.90
10247;DHT22;5168;47.854;7.944;2022-07-24T02:39:07;16.50;99.90
10247;DHT22;5168;47.854;7.944;2022-07-24T02:46:25;16.80;99.90
10247;DHT22;5168;47.854;7.944;2022-07-24T02:48:50;16.60;99.90
10247;DHT22;5168;47.854;7.944;2022-07-24T02:51:16;15.90;99.90
10247;DHT22;5168;47.854;7.944;2022-07-24T02:53:42;16.30;99.90
10247;DHT22;5168;47.854;7.944;2022-07-24T02:56:07;16.50;99.90
10247;DHT22;5168;47.854;7.944;2022-07-24T02:58:36;16.80;99.90
10247;DHT22;5168;47.854;7.944;2022-07-24T03:01:03;16.70;99.90
10247;DHT22;5168;47.854;7.944;2022-07-24T03:03:28;16.70;99.90
10247;DHT22;5168;47.854;7.944;2022-07-24T03:10:45;16.70;99.90
10247;DHT22;5168;47.854;7.944;2022-07-24T03:18:03;16.90;99.90
10247;DHT22;5168;47.854;7.944;2022-07-24T03:22:56;16.00;99.90
10247;DHT22;5168;47.854;7.944;2022-07-24T03:25:22;16.50;99.90
10247;DHT22;5168;47.854;7.944;2022-07-24T03:27:48;16.20;99.90
10247;DHT22;5168;47.854;7.944;2022-07-24T03:30:17;16.70;99.90
10247;DHT22;5168;47.854;7.944;2022-07-24T03:32:43;16.80;99.90
10247;DHT22;5168;47.854;7.944;2022-07-24T03:35:09;16.20;99.90
10247;DHT22;5168;47.854;7.944;2022-07-24T03:37:35;16.30;99.90
10247;DHT22;5168;47.854;7.944;2022-07-24T03:40:01;16.20;99.90
10247;DHT22;5168;47.854;7.944;2022-07-24T03:44:53;16.60;99.90
10247;DHT22;5168;47.854;7.944;2022-07-24T03:47:18;16.80;99.90
10247;DHT22;5168;47.854;7.944;2022-07-24T03:49:44;16.00;99.90
10247;DHT22;5168;47.854;7.944;2022-07-24T03:59:27;16.40;99.90
10247;DHT22;5168;47.854;7.944;2022-07-24T04:01:53;16.10;99.90
10247;DHT22;5168;47.854;7.944;2022-07-24T04:14:03;16.00;99.90
10247;DHT22;5168;47.854;7.944;2022-07-24T04:16:28;16.90;99.90
10247;DHT22;5168;47.854;7.944;2022-07-24T04:18:57;15.90;99.90
10247;DHT22;5168;47.854;7.944;2022-07-24T04:21:22;16.90;99.90
10247;DHT22;5168;47.854;7.944;2022-07-24T04:31:07;16.50;99.90
10247;DHT22;5168;47.854;7.944;2022-07-24T04:33:33;16.00;99.90
10247;DHT22;5168;47.854;7.944;2022-07-24T04:35:59;16.60;99.90
10247;DHT22;5168;47.854;7.944;2022-07-24T04:38:24;16.80;99.90
10247;DHT22;5168;47.854;7.944;2022-07-24T04:40:50;16.80;99.90
10247;DHT22;5168;47.854;7.944;2022-07-24T04:43:16;17.10;99.90
10247;DHT22;5168;47.854;7.944;2022-07-24T04:45:44;16.60;99.90
10247;DHT22;5168;47.854;7.944;2022-07-24T04:48:10;16.90;99.90
10247;DHT22;5168;47.854;7.944;2022-07-24T04:53:01;16.50;99.90
10247;DHT22;5168;47.854;7.944;2022-07-24T04:57:53;16.90;99.90
10247;DHT22;5168;47.854;7.944;2022-07-24T05:00:19;17.20;99.90
10247;DHT22;5168;47.854;7.944;2022-07-24T05:07:36;17.00;99.90
10247;DHT22;5168;47.854;7.944;2022-07-24T05:10:03;17.20;99.90
10247;DHT22;5168;47.854;7.944;2022-07-24T05:19:47;17.20;99.90
10247;DHT22;5168;47.854;7.944;2022-07-24T05:22:12;17.30;99.90
10247;DHT22;5168;47.854;7.944;2022-07-24T05:34:22;17.40;99.90
10247;DHT22;5168;47.854;7.944;2022-07-24T05:36:48;17.50;99.90
10247;DHT22;5168;47.854;7.944;2022-07-24T05:39:14;18.00;99.90
10247;DHT22;5168;47.854;7.944;2022-07-24T05:44:05;18.10;99.90
10247;DHT22;5168;47.854;7.944;2022-07-24T05:51:23;19.60;99.90
10247;DHT22;5168;47.854;7.944;2022-07-24T05:53:48;19.80;99.90
10247;DHT22;5168;47.854;7.944;2022-07-24T05:56:14;19.40;99.90
10247;DHT22;5168;47.854;7.944;2022-07-24T06:01:05;19.90;99.90
10247;DHT22;5168;47.854;7.944;2022-07-24T06:08:23;20.60;99.90
10247;DHT22;5168;47.854;7.944;2022-07-24T06:10:49;21.20;99.90
10247;DHT22;5168;47.854;7.944;2022-07-24T06:15:40;21.30;99.90
10247;DHT22;5168;47.854;7.944;2022-07-24T06:18:06;21.90;99.90
10247;DHT22;5168;47.854;7.944;2022-07-24T06:20:31;21.30;99.90
10247;DHT22;5168;47.854;7.944;2022-07-24T06:25:23;21.60;99.90
10247;DHT22;5168;47.854;7.944;2022-07-24T06:27:50;22.30;99.90
10247;DHT22;5168;47.854;7.944;2022-07-24T06:30:21;22.40;99.90
10247;DHT22;5168;47.854;7.944;2022-07-24T06:32:47;22.70;99.90
10247;DHT22;5168;47.854;7.944;2022-07-24T06:35:13;22.00;99.90
10247;DHT22;5168;47.854;7.944;2022-07-24T06:37:38;22.70;99.90
10247;DHT22;5168;47.854;7.944;2022-07-24T06:40:05;23.00;99.90
10247;DHT22;5168;47.854;7.944;2022-07-24T06:44:56;22.50;99.90
10247;DHT22;5168;47.854;7.944;2022-07-24T06:47:22;23.20;99.90
10247;DHT22;5168;47.854;7.944;2022-07-24T06:49:47;22.50;99.90
10247;DHT22;5168;47.854;7.944;2022-07-24T06:57:07;23.20;99.90
10247;DHT22;5168;47.854;7.944;2022-07-24T07:11:42;23.90;99.90
10247;DHT22;5168;47.854;7.944;2022-07-24T07:14:07;23.40;99.90
10247;DHT22;5168;47.854;7.944;2022-07-24T07:16:33;23.70;99.90
10247;DHT22;5168;47.854;7.944;2022-07-24T07:21:25;23.80;99.90
10247;DHT22;5168;47.854;7.944;2022-07-24T07:23:50;23.80;99.90
10247;DHT22;5168;47.854;7.944;2022-07-24T07:26:18;24.40;99.90
10247;DHT22;5168;47.854;7.944;2022-07-24T07:31:09;24.20;99.90
10247;DHT22;5168;47.854;7.944;2022-07-24T07:36:01;24.90;99.90
10247;DHT22;5168;47.854;7.944;2022-07-24T07:38:26;24.50;99.90
10247;DHT22;5168;47.854;7.944;2022-07-24T07:40:52;24.20;99.90
10247;DHT22;5168;47.854;7.944;2022-07-24T07:43:17;24.90;99.90
10247;DHT22;5168;47.854;7.944;2022-07-24T07:45:43;24.50;99.90
10247;DHT22;5168;47.854;7.944;2022-07-24T07:53:00;23.60;99.90
10247;DHT22;5168;47.854;7.944;2022-07-24T07:55:26;23.50;99.90
10247;DHT22;5168;47.854;7.944;2022-07-24T07:57:52;24.10;99.90
10247;DHT22;5168;47.854;7.944;2022-07-24T08:02:44;24.50;99.90
10247;DHT22;5168;47.854;7.944;2022-07-24T08:05:10;24.40;99.90
10247;DHT22;5168;47.854;7.944;2022-07-24T08:10:02;23.90;99.90
10247;DHT22;5168;47.854;7.944;2022-07-24T08:14:54;24.40;99.90
10247;DHT22;5168;47.854;7.944;2022-07-24T08:17:19;24.50;99.90
10247;DHT22;5168;47.854;7.944;2022-07-24T08:19:45;24.40;99.90
10247;DHT22;5168;47.854;7.944;2022-07-24T08:22:11;24.50;99.90
10247;DHT22;5168;47.854;7.944;2022-07-24T08:24:37;24.80;99.90
10247;DHT22;5168;47.854;7.944;2022-07-24T08:27:02;24.10;99.90
10247;DHT22;5168;47.854;7.944;2022-07-24T08:29:28;25.00;99.90
10247;DHT22;5168;47.854;7.944;2022-07-24T08:31:53;25.00;99.90
10247;DHT22;5168;47.854;7.944;2022-07-24T08:34:19;25.60;99.90
10247;DHT22;5168;47.854;7.944;2022-07-24T08:36:45;26.10;99.90
10247;DHT22;5168;47.854;7.944;2022-07-24T08:39:14;27.00;99.90
10247;DHT22;5168;47.854;7.944;2022-07-24T08:41:41;27.20;99.90
10247;DHT22;5168;47.854;7.944;2022-07-24T08:44:06;27.00;99.90
10247;DHT22;5168;47.854;7.944;2022-07-24T08:46:33;27.30;99.20
10247;DHT22;5168;47.854;7.944;2022-07-24T08:49:02;27.30;99.90
10247;DHT22;5168;47.854;7.944;2022-07-24T08:51:32;27.10;99.90
10247;DHT22;5168;47.854;7.944;2022-07-24T08:53:58;27.20;99.90
10247;DHT22;5168;47.854;7.944;2022-07-24T08:56:25;28.00;99.90
10247;DHT22;5168;47.854;7.944;2022-07-24T08:58:50;27.60;99.90
10247;DHT22;5168;47.854;7.944;2022-07-24T09:01:16;28.90;99.70
10247;DHT22;5168;47.854;7.944;2022-07-24T09:03:46;28.30;95.20
10247;DHT22;5168;47.854;7.944;2022-07-24T09:06:12;28.40;93.30
10247;DHT22;5168;47.854;7.944;2022-07-24T09:08:43;27.40;95.90
10247;DHT22;5168;47.854;7.944;2022-07-24T09:11:21;28.60;96.90
10247;DHT22;5168;47.854;7.944;2022-07-24T09:13:50;28.00;94.60
10247;DHT22;5168;47.854;7.944;2022-07-24T09:16:35;28.00;96.10
10247;DHT22;5168;47.854;7.944;2022-07-24T09:19:08;28.30;93.00
10247;DHT22;5168;47.854;7.944;2022-07-24T09:21:36;28.40;95.80
10247;DHT22;5168;47.854;7.944;2022-07-24T09:24:15;28.50;93.60
10247;DHT22;5168;47.854;7.944;2022-07-24T09:26:49;28.30;95.60
10247;DHT22;5168;47.854;7.944;2022-07-24T09:29:16;27.80;93.90
10247;DHT22;5168;47.854;7.944;2022-07-24T09:32:00;27.20;97.30
10247;DHT22;5168;47.854;7.944;2022-07-24T09:34:29;26.90;97.90
10247;DHT22;5168;47.854;7.944;2022-07-24T09:37:03;27.40;98.70
10247;DHT22;5168;47.854;7.944;2022-07-24T09:39:31;27.00;99.30
10247;DHT22;5168;47.854;7.944;2022-07-24T09:42:01;26.40;99.90
10247;DHT22;5168;47.854;7.944;2022-07-24T09:44:27;26.40;99.90
10247;DHT22;5168;47.854;7.944;2022-07-24T09:46:57;26.60;99.90
10247;DHT22;5168;47.854;7.944;2022-07-24T09:49:24;25.50;99.90
10247;DHT22;5168;47.854;7.944;2022-07-24T09:54:46;25.50;97.40
10247;DHT22;5168;47.854;7.944;2022-07-24T09:59:45;25.50;99.90
10247;DHT22;5168;47.854;7.944;2022-07-24T10:02:13;25.40;99.90
10247;DHT22;5168;47.854;7.944;2022-07-24T10:04:41;25.20;99.90
10247;DHT22;5168;47.854;7.944;2022-07-24T10:07:10;25.30;98.60
10247;DHT22;5168;47.854;7.944;2022-07-24T10:09:41;25.20;99.00
10247;DHT22;5168;47.854;7.944;2022-07-24T10:12:14;25.30;99.90
10247;DHT22;5168;47.854;7.944;2022-07-24T10:14:41;25.30;99.90
10247;DHT22;5168;47.854;7.944;2022-07-24T10:17:09;25.30;99.90
10247;DHT22;5168;47.854;7.944;2022-07-24T10:19:45;25.30;99.90
10247;DHT22;5168;47.854;7.944;2022-07-24T10:22:16;25.40;99.90
10247;DHT22;5168;47.854;7.944;2022-07-24T10:25:04;27.60;99.90
10247;DHT22;5168;47.854;7.944;2022-07-24T10:27:35;27.70;99.90
10247;DHT22;5168;47.854;7.944;2022-07-24T10:30:05;27.60;95.80
10247;DHT22;5168;47.854;7.944;2022-07-24T10:32:33;28.30;95.50
10247;DHT22;5168;47.854;7.944;2022-07-24T10:35:21;28.30;96.10
10247;DHT22;5168;47.854;7.944;2022-07-24T10:38:17;28.20;99.70
10247;DHT22;5168;47.854;7.944;2022-07-24T10:40:48;29.10;99.30
10247;DHT22;5168;47.854;7.944;2022-07-24T10:43:16;29.30;97.50
10247;DHT22;5168;47.854;7.944;2022-07-24T10:59:14;27.50;99.90
10247;DHT22;5168;47.854;7.944;2022-07-24T11:01:47;27.00;99.90
10247;DHT22;5168;47.854;7.944;2022-07-24T11:06:46;27.20;99.90
10247;DHT22;5168;47.854;7.944;2022-07-24T11:09:12;27.30;97.90
10247;DHT22;5168;47.854;7.944;2022-07-24T11:14:46;26.90;99.90
10247;DHT22;5168;47.854;7.944;2022-07-24T11:17:40;27.30;97.90
10247;DHT22;5168;47.854;7.944;2022-07-24T11:20:16;27.60;97.30
10247;DHT22;5168;47.854;7.944;2022-07-24T11:22:50;27.80;99.90
10247;DHT22;5168;47.854;7.944;2022-07-24T11:27:45;27.40;96.50
10247;DHT22;5168;47.854;7.944;2022-07-24T11:30:11;27.30;96.00
10247;DHT22;5168;47.854;7.944;2022-07-24T11:32:39;27.20;95.20
10247;DHT22;5168;47.854;7.944;2022-07-24T11:35:06;27.20;98.00
10247;DHT22;5168;47.854;7.944;2022-07-24T11:37:33;26.60;96.40
10247;DHT22;5168;47.854;7.944;2022-07-24T11:44:51;26.20;99.40
10247;DHT22;5168;47.854;7.944;2022-07-24T11:49:44;26.00;99.90
10247;DHT22;5168;47.854;7.944;2022-07-24T11:52:24;26.30;99.90
10247;DHT22;5168;47.854;7.944;2022-07-24T11:54:52;25.90;99.90
10247;DHT22;5168;47.854;7.944;2022-07-24T11:57:24;26.40;97.70
10247;DHT22;5168;47.854;7.944;2022-07-24T11:59:51;26.90;99.90
10247;DHT22;5168;47.854;7.944;2022-07-24T12:02:18;27.40;97.10
10247;DHT22;5168;47.854;7.944;2022-07-24T12:04:46;27.70;98.90
10247;DHT22;5168;47.854;7.944;2022-07-24T12:07:19;27.50;98.60
10247;DHT22;5168;47.854;7.944;2022-07-24T12:09:51;27.90;95.80
10247;DHT22;5168;47.854;7.944;2022-07-24T12:12:18;27.70;98.30
10247;DHT22;5168;47.854;7.944;2022-07-24T12:14:44;27.50;97.50
10247;DHT22;5168;47.854;7.944;2022-07-24T12:17:10;27.30;95.90
10247;DHT22;5168;47.854;7.944;2022-07-24T12:19:35;27.40;98.10
10247;DHT22;5168;47.854;7.944;2022-07-24T12:22:01;27.70;98.20
10247;DHT22;5168;47.854;7.944;2022-07-24T12:24:31;28.10;97.90
10247;DHT22;5168;47.854;7.944;2022-07-24T12:26:58;28.60;94.20
10247;DHT22;5168;47.854;7.944;2022-07-24T12:29:25;29.10;96.80
10247;DHT22;5168;47.854;7.944;2022-07-24T12:32:14;29.50;96.80
10247;DHT22;5168;47.854;7.944;2022-07-24T12:34:44;29.80;95.30
10247;DHT22;5168;47.854;7.944;2022-07-24T12:37:18;30.10;94.30
10247;DHT22;5168;47.854;7.944;2022-07-24T12:39:51;30.20;93.60
10247;DHT22;5168;47.854;7.944;2022-07-24T12:42:18;30.20;90.50
10247;DHT22;5168;47.854;7.944;2022-07-24T12:44:45;28.10;88.60
10247;DHT22;5168;47.854;7.944;2022-07-24T12:47:11;29.60;92.50
10247;DHT22;5168;47.854;7.944;2022-07-24T12:49:45;29.60;92.80
10247;DHT22;5168;47.854;7.944;2022-07-24T12:52:25;29.00;90.30
10247;DHT22;5168;47.854;7.944;2022-07-24T12:54:53;28.80;93.70
10247;DHT22;5168;47.854;7.944;2022-07-24T12:57:22;29.00;94.50
10247;DHT22;5168;47.854;7.944;2022-07-24T12:59:49;29.00;91.40
10247;DHT22;5168;47.854;7.944;2022-07-24T13:02:20;29.20;93.60
10247;DHT22;5168;47.854;7.944;2022-07-24T13:04:48;29.00;93.70
10247;DHT22;5168;47.854;7.944;2022-07-24T13:07:17;29.20;90.80
10247;DHT22;5168;47.854;7.944;2022-07-24T13:09:43;29.30;93.30
10247;DHT22;5168;47.854;7.944;2022-07-24T13:12:10;27.50;89.20
10247;DHT22;5168;47.854;7.944;2022-07-24T13:17:07;29.20;93.50
10247;DHT22;5168;47.854;7.944;2022-07-24T13:19:39;29.40;90.60
10247;DHT22;5168;47.854;7.944;2022-07-24T13:22:05;29.40;93.40
10247;DHT22;5168;47.854;7.944;2022-07-24T13:24:31;29.10;93.20
10247;DHT22;5168;47.854;7.944;2022-07-24T13:26:58;29.00;90.80
10247;DHT22;5168;47.854;7.944;2022-07-24T13:29:25;29.30;92.10
10247;DHT22;5168;47.854;7.944;2022-07-24T13:31:51;29.60;93.10
10247;DHT22;5168;47.854;7.944;2022-07-24T13:34:17;29.70;92.70
10247;DHT22;5168;47.854;7.944;2022-07-24T13:41:35;30.30;87.10
10247;DHT22;5168;47.854;7.944;2022-07-24T13:44:02;30.50;87.00
10247;DHT22;5168;47.854;7.944;2022-07-24T13:46:29;30.60;85.20
10247;DHT22;5168;47.854;7.944;2022-07-24T13:48:54;30.70;90.10
10247;DHT22;5168;47.854;7.944;2022-07-24T13:51:20;30.70;90.10
10247;DHT22;5168;47.854;7.944;2022-07-24T14:01:05;31.40;88.00
10247;DHT22;5168;47.854;7.944;2022-07-24T14:03:32;31.70;83.00
10247;DHT22;5168;47.854;7.944;2022-07-24T14:05:59;31.90;88.00
10247;DHT22;5168;47.854;7.944;2022-07-24T14:08:25;31.90;81.70
10247;DHT22;5168;47.854;7.944;2022-07-24T14:15:42;31.70;84.70
10247;DHT22;5168;47.854;7.944;2022-07-24T14:20:34;31.90;84.30
10247;DHT22;5168;47.854;7.944;2022-07-24T14:23:00;32.00;78.50
10247;DHT22;5168;47.854;7.944;2022-07-24T14:25:25;31.90;82.50
10247;DHT22;5168;47.854;7.944;2022-07-24T14:27:51;31.80;81.90
10247;DHT22;5168;47.854;7.944;2022-07-24T14:30:16;31.60;82.60
10247;DHT22;5168;47.854;7.944;2022-07-24T14:35:09;31.10;81.10
10247;DHT22;5168;47.854;7.944;2022-07-24T14:37:35;30.90;75.60
10247;DHT22;5168;47.854;7.944;2022-07-24T14:40:02;30.70;81.50
10247;DHT22;5168;47.854;7.944;2022-07-24T14:42:28;30.80;83.50
10247;DHT22;5168;47.854;7.944;2022-07-24T14:44:54;30.80;83.30
10247;DHT22;5168;47.854;7.944;2022-07-24T14:47:19;30.70;80.80
10247;DHT22;5168;47.854;7.944;2022-07-24T14:49:45;30.50;82.40
10247;DHT22;5168;47.854;7.944;2022-07-24T14:52:10;30.70;82.10
10247;DHT22;5168;47.854;7.944;2022-07-24T14:59:29;30.40;83.00
10247;DHT22;5168;47.854;7.944;2022-07-24T15:01:54;30.50;81.90
10247;DHT22;5168;47.854;7.944;2022-07-24T15:09:12;30.70;83.60
10247;DHT22;5168;47.854;7.944;2022-07-24T15:11:38;30.50;81.60
10247;DHT22;5168;47.854;7.944;2022-07-24T15:14:04;30.40;81.50
10247;DHT22;5168;47.854;7.944;2022-07-24T15:16:30;30.60;81.50
10247;DHT22;5168;47.854;7.944;2022-07-24T15:18:55;30.20;77.70
10247;DHT22;5168;47.854;7.944;2022-07-24T15:23:47;29.90;82.40
10247;DHT22;5168;47.854;7.944;2022-07-24T15:26:12;29.70;81.90
10247;DHT22;5168;47.854;7.944;2022-07-24T15:35:55;29.80;82.00
10247;DHT22;5168;47.854;7.944;2022-07-24T15:40:47;29.50;81.90
10247;DHT22;5168;47.854;7.944;2022-07-24T15:43:13;29.80;81.10
10247;DHT22;5168;47.854;7.944;2022-07-24T15:45:39;29.60;76.30
10247;DHT22;5168;47.854;7.944;2022-07-24T15:48:05;29.50;80.30
10247;DHT22;5168;47.854;7.944;2022-07-24T15:55:23;29.40;82.90
10247;DHT22;5168;47.854;7.944;2022-07-24T15:57:48;28.90;83.00
10247;DHT22;5168;47.854;7.944;2022-07-24T16:00:15;28.60;82.60
10247;DHT22;5168;47.854;7.944;2022-07-24T16:02:41;29.40;84.20
10247;DHT22;5168;47.854;7.944;2022-07-24T16:05:07;28.50;84.10
10247;DHT22;5168;47.854;7.944;2022-07-24T16:12:26;28.50;88.40
10247;DHT22;5168;47.854;7.944;2022-07-24T16:14:51;28.30;89.20
10247;DHT22;5168;47.854;7.944;2022-07-24T16:17:18;27.90;89.00
10247;DHT22;5168;47.854;7.944;2022-07-24T16:24:37;27.50;90.40
10247;DHT22;5168;47.854;7.944;2022-07-24T16:27:03;27.70;90.90
10247;DHT22;5168;47.854;7.944;2022-07-24T16:29:28;27.90;90.70
10247;DHT22;5168;47.854;7.944;2022-07-24T16:31:54;27.40;86.50
10247;DHT22;5168;47.854;7.944;2022-07-24T16:39:12;27.20;88.50
10247;DHT22;5168;47.854;7.944;2022-07-24T16:41:37;27.00;91.80
10247;DHT22;5168;47.854;7.944;2022-07-24T16:44:03;27.30;91.00
10247;DHT22;5168;47.854;7.944;2022-07-24T16:51:20;26.80;92.10
10247;DHT22;5168;47.854;7.944;2022-07-24T16:53:46;26.50;91.90
10247;DHT22;5168;47.854;7.944;2022-07-24T16:58:38;26.20;92.40
10247;DHT22;5168;47.854;7.944;2022-07-24T17:01:05;26.70;92.70
10247;DHT22;5168;47.854;7.944;2022-07-24T17:03:33;26.50;88.80
10247;DHT22;5168;47.854;7.944;2022-07-24T17:05:58;26.30;92.30
10247;DHT22;5168;47.854;7.944;2022-07-24T17:20:38;26.80;93.10
10247;DHT22;5168;47.854;7.944;2022-07-24T17:23:06;26.60;93.30
10247;DHT22;5168;47.854;7.944;2022-07-24T17:25:32;25.80;93.00
10247;DHT22;5168;47.854;7.944;2022-07-24T17:27:59;25.90;89.90
10247;DHT22;5168;47.854;7.944;2022-07-24T17:30:26;26.00;91.10
10247;DHT22;5168;47.854;7.944;2022-07-24T17:32:52;25.40;92.80
10247;DHT22;5168;47.854;7.944;2022-07-24T17:35:18;25.50;94.00
10247;DHT22;5168;47.854;7.944;2022-07-24T17:37:44;25.50;94.00
10247;DHT22;5168;47.854;7.944;2022-07-24T17:40:11;25.90;93.00
10247;DHT22;5168;47.854;7.944;2022-07-24T17:42:37;25.10;94.40
10247;DHT22;5168;47.854;7.944;2022-07-24T17:45:04;25.80;95.10
10247;DHT22;5168;47.854;7.944;2022-07-24T17:54:48;25.40;96.10
10247;DHT22;5168;47.854;7.944;2022-07-24T17:57:14;25.10;96.30
10247;DHT22;5168;47.854;7.944;2022-07-24T17:59:39;25.20;94.80
10247;DHT22;5168;47.854;7.944;2022-07-24T18:06:57;24.90;97.40
10247;DHT22;5168;47.854;7.944;2022-07-24T18:09:22;24.40;97.40
10247;DHT22;5168;47.854;7.944;2022-07-24T18:11:48;24.60;97.20
10247;DHT22;5168;47.854;7.944;2022-07-24T18:14:14;24.80;97.00
10247;DHT22;5168;47.854;7.944;2022-07-24T18:19:06;24.40;98.10
10247;DHT22;5168;47.854;7.944;2022-07-24T18:21:31;23.80;98.20
10247;DHT22;5168;47.854;7.944;2022-07-24T18:23:57;24.30;98.80
10247;DHT22;5168;47.854;7.944;2022-07-24T18:26:23;24.10;98.90
10247;DHT22;5168;47.854;7.944;2022-07-24T18:33:40;23.80;99.70
10247;DHT22;5168;47.854;7.944;2022-07-24T18:36:07;23.90;99.90
10247;DHT22;5168;47.854;7.944;2022-07-24T18:40:58;23.10;99.90
10247;DHT22;5168;47.854;7.944;2022-07-24T18:43:24;23.60;99.90
10247;DHT22;5168;47.854;7.944;2022-07-24T18:45:50;23.40;99.90
10247;DHT22;5168;47.854;7.944;2022-07-24T18:55:33;22.60;99.90
10247;DHT22;5168;47.854;7.944;2022-07-24T18:57:59;23.20;99.90
10247;DHT22;5168;47.854;7.944;2022-07-24T19:00:25;23.10;99.80
10247;DHT22;5168;47.854;7.944;2022-07-24T19:05:16;22.10;99.90
10247;DHT22;5168;47.854;7.944;2022-07-24T19:07:42;22.00;99.90
10247;DHT22;5168;47.854;7.944;2022-07-24T19:10:08;22.10;99.90
10247;DHT22;5168;47.854;7.944;2022-07-24T19:12:34;22.70;99.90
10247;DHT22;5168;47.854;7.944;2022-07-24T19:15:00;22.20;98.40
10247;DHT22;5168;47.854;7.944;2022-07-24T19:17:25;22.00;99.90
10247;DHT22;5168;47.854;7.944;2022-07-24T19:19:52;22.20;99.90
10247;DHT22;5168;47.854;7.944;2022-07-24T19:29:35;21.40;99.90
10247;DHT22;5168;47.854;7.944;2022-07-24T19:32:01;22.20;99.90
10247;DHT22;5168;47.854;7.944;2022-07-24T19:34:27;21.20;99.90
10247;DHT22;5168;47.854;7.944;2022-07-24T19:36:53;21.80;99.90
10247;DHT22;5168;47.854;7.944;2022-07-24T19:44:10;20.90;99.90
10247;DHT22;5168;47.854;7.944;2022-07-24T19:46:37;21.10;99.90
10247;DHT22;5168;47.854;7.944;2022-07-24T19:49:05;20.70;99.90
10247;DHT22;5168;47.854;7.944;2022-07-24T19:51:30;21.10;99.90
10247;DHT22;5168;47.854;7.944;2022-07-24T19:53:56;20.90;99.90
10247;DHT22;5168;47.854;7.944;2022-07-24T20:03:39;21.30;99.90
10247;DHT22;5168;47.854;7.944;2022-07-24T20:06:05;21.00;99.90
10247;DHT22;5168;47.854;7.944;2022-07-24T20:08:30;21.40;99.90
10247;DHT22;5168;47.854;7.944;2022-07-24T20:18:15;20.90;99.90
10247;DHT22;5168;47.854;7.944;2022-07-24T20:20:40;21.00;99.90
10247;DHT22;5168;47.854;7.944;2022-07-24T20:23:06;21.20;99.90
10247;DHT22;5168;47.854;7.944;2022-07-24T20:25:32;21.10;99.90
10247;DHT22;5168;47.854;7.944;2022-07-24T20:30:24;21.30;99.90
10247;DHT22;5168;47.854;7.944;2022-07-24T20:32:50;21.00;99.90
10247;DHT22;5168;47.854;7.944;2022-07-24T20:42:35;21.20;99.90
10247;DHT22;5168;47.854;7.944;2022-07-24T20:45:03;20.60;99.90
10247;DHT22;5168;47.854;7.944;2022-07-24T20:47:29;21.20;99.90
10247;DHT22;5168;47.854;7.944;2022-07-24T20:49:54;20.40;99.90
10247;DHT22;5168;47.854;7.944;2022-07-24T20:54:46;21.20;99.90
10247;DHT22;5168;47.854;7.944;2022-07-24T20:57:12;20.70;99.90
10247;DHT22;5168;47.854;7.944;2022-07-24T20:59:37;21.00;99.90
10247;DHT22;5168;47.854;7.944;2022-07-24T21:02:03;20.50;99.90
10247;DHT22;5168;47.854;7.944;2022-07-24T21:04:28;20.50;99.90
10247;DHT22;5168;47.854;7.944;2022-07-24T21:06:54;19.90;99.90
10247;DHT22;5168;47.854;7.944;2022-07-24T21:09:20;21.00;99.90
10247;DHT22;5168;47.854;7.944;2022-07-24T21:16:37;20.50;99.90
10247;DHT22;5168;47.854;7.944;2022-07-24T21:19:03;20.60;99.90
10247;DHT22;5168;47.854;7.944;2022-07-24T21:21:29;20.20;99.90
10247;DHT22;5168;47.854;7.944;2022-07-24T21:28:46;20.40;99.90
10247;DHT22;5168;47.854;7.944;2022-07-24T21:31:12;20.60;99.90
10247;DHT22;5168;47.854;7.944;2022-07-24T21:33:38;20.40;99.90
10247;DHT22;5168;47.854;7.944;2022-07-24T21:38:30;19.60;99.90
10247;DHT22;5168;47.854;7.944;2022-07-24T21:40:56;19.60;99.90
10247;DHT22;5168;47.854;7.944;2022-07-24T21:45:47;19.50;99.90
10247;DHT22;5168;47.854;7.944;2022-07-24T21:48:13;20.40;99.90
10247;DHT22;5168;47.854;7.944;2022-07-24T21:50:39;19.70;99.90
10247;DHT22;5168;47.854;7.944;2022-07-24T21:55:30;19.50;99.90